Time;durP1;ratioP1;P1;durP2;ratioP2;P2;SDS_P1;SDS_P2;PMS_P1;PMS_P2;Temp;Humidity;BMP_temperature;BMP_pressure;BME280_temperature;BME280_humidity;BME280_pressure;Samples;Min_cycle;Max_cycle;Signal;HPM_P1;HPM_P2
2022/05/16 00:00:46;;;;;;;;;;;;;;;15.30;100.00;98759.75;5054926;28;20269;-84
2022/05/16 00:03:14;;;;;;;;;;;;;;;15.11;100.00;98758.13;5071264;28;19925;-84
2022/05/16 00:05:41;;;;;;;;;;;;;;;15.33;100.00;98746.78;5021848;28;19932;-84
2022/05/16 00:08:09;;;;;;;;;;;;;;;15.26;100.00;98736.63;5071252;28;19932;-84
2022/05/16 00:10:36;;;;;;;;;;;;;;;15.32;100.00;98728.34;5071272;28;19925;-84
2022/05/16 00:13:04;;;;;;;;;;;;;;;15.18;100.00;98717.66;5071407;28;19971;-84
2022/05/16 00:15:31;;;;;;;;;;;;;;;14.77;100.00;98704.78;5044311;28;19935;-84
2022/05/16 00:17:58;;;;;;;;;;;;;;;14.67;100.00;98706.00;5074646;28;19970;-84
2022/05/16 00:20:25;;;;;;;;;;;;;;;14.98;100.00;98709.59;5074332;28;19925;-84
2022/05/16 00:22:53;;;;;;;;;;;;;;;14.81;100.00;98719.50;5074616;28;19924;-83
2022/05/16 00:25:20;;;;;;;;;;;;;;;14.92;100.00;98714.25;5074493;28;20011;-84
2022/05/16 00:27:48;;;;;;;;;;;;;;;14.78;100.00;98712.00;5058074;28;19924;-84
2022/05/16 00:30:17;;;;;;;;;;;;;;;14.38;100.00;98716.72;5074161;28;19924;-83
2022/05/16 00:32:45;;;;;;;;;;;;;;;14.36;100.00;98736.06;5091151;28;19931;-83
2022/05/16 00:35:12;;;;;;;;;;;;;;;14.71;100.00;98717.88;5057813;28;19932;-83
2022/05/16 00:37:39;;;;;;;;;;;;;;;14.63;100.00;98730.63;5041129;28;19924;-84
2022/05/16 00:40:08;;;;;;;;;;;;;;;14.31;100.00;98736.66;5073057;28;20022;-83
2022/05/16 00:42:34;;;;;;;;;;;;;;;14.37;100.00;98740.44;5075263;28;19932;-83
2022/05/16 00:45:02;;;;;;;;;;;;;;;13.86;100.00;98741.81;5057303;28;19932;-83
2022/05/16 00:47:30;;;;;;;;;;;;;;;14.25;100.00;98735.66;5058158;28;19932;-83
2022/05/16 00:49:57;;;;;;;;;;;;;;;13.91;100.00;98728.00;5057029;28;19924;-83
2022/05/16 00:52:27;;;;;;;;;;;;;;;14.17;100.00;98717.47;5057270;28;19963;-83
2022/05/16 00:54:56;;;;;;;;;;;;;;;14.03;100.00;98707.50;5040822;28;20268;-83
2022/05/16 00:57:24;;;;;;;;;;;;;;;14.03;100.00;98712.34;5057352;28;19924;-84
2022/05/16 00:59:58;;;;;;;;;;;;;;;14.09;100.00;98722.53;5040293;28;19932;-83
2022/05/16 01:05:12;;;;;;;;;;;;;;;13.81;100.00;98703.84;5073808;28;19951;-83
2022/05/16 01:07:42;;;;;;;;;;;;;;;13.97;100.00;98691.69;5074203;28;19931;-85
2022/05/16 01:10:11;;;;;;;;;;;;;;;13.92;100.00;98692.25;5091061;28;19979;-80
2022/05/16 01:12:40;;;;;;;;;;;;;;;13.87;100.00;98676.75;5074787;28;19966;-83
2022/05/16 01:15:10;;;;;;;;;;;;;;;14.01;100.00;98692.38;5056503;28;19925;-84
2022/05/16 01:17:38;;;;;;;;;;;;;;;14.26;100.00;98698.69;5056953;28;20019;-83
2022/05/16 01:20:06;;;;;;;;;;;;;;;14.10;100.00;98692.44;5074437;28;19931;-83
2022/05/16 01:22:38;;;;;;;;;;;;;;;13.94;100.00;98682.16;5056555;28;20047;-83
2022/05/16 01:25:07;;;;;;;;;;;;;;;13.76;100.00;98676.38;5073348;28;20291;-83
2022/05/16 01:27:47;;;;;;;;;;;;;;;13.72;100.00;98677.75;5055887;28;19925;-83
2022/05/16 01:30:15;;;;;;;;;;;;;;;13.66;100.00;98673.94;5054372;28;19978;-83
2022/05/16 01:32:42;;;;;;;;;;;;;;;13.79;100.00;98667.03;5053553;28;20372;-83
2022/05/16 01:35:09;;;;;;;;;;;;;;;13.60;100.00;98668.09;5019974;28;19925;-83
2022/05/16 01:40:22;;;;;;;;;;;;;;;13.72;100.00;98658.09;5053234;28;19953;-83
2022/05/16 01:42:50;;;;;;;;;;;;;;;13.72;100.00;98663.69;5036461;28;19932;-83
2022/05/16 01:45:17;;;;;;;;;;;;;;;13.68;100.00;98663.03;5052805;28;19931;-84
2022/05/16 01:47:44;;;;;;;;;;;;;;;13.70;100.00;98663.38;5036463;28;19928;-84
2022/05/16 01:50:11;;;;;;;;;;;;;;;13.91;100.00;98660.59;5054056;28;19928;-84
2022/05/16 01:52:38;;;;;;;;;;;;;;;13.70;100.00;98660.56;5036589;28;19998;-84
2022/05/16 01:55:05;;;;;;;;;;;;;;;13.60;100.00;98670.13;5019804;28;20027;-84
2022/05/16 01:57:32;;;;;;;;;;;;;;;13.72;100.00;98663.69;5036193;28;19925;-84
2022/05/16 01:59:59;;;;;;;;;;;;;;;13.89;100.00;98656.66;5036718;28;19932;-84
2022/05/16 02:02:41;;;;;;;;;;;;;;;13.91;100.00;98668.22;5052765;28;20384;-84
2022/05/16 02:05:09;;;;;;;;;;;;;;;13.66;100.00;98660.66;5036372;28;19925;-84
2022/05/16 02:07:36;;;;;;;;;;;;;;;13.58;100.00;98658.56;5035548;28;19925;-84
2022/05/16 02:10:03;;;;;;;;;;;;;;;13.73;100.00;98665.25;5036036;28;19925;-84
2022/05/16 02:12:30;;;;;;;;;;;;;;;13.78;100.00;98659.06;5052819;28;19925;-84
2022/05/16 02:14:58;;;;;;;;;;;;;;;13.98;100.00;98653.94;5057351;28;19951;-84
2022/05/16 02:17:25;;;;;;;;;;;;;;;14.09;100.00;98638.25;5058569;28;20051;-84
2022/05/16 02:19:52;;;;;;;;;;;;;;;14.08;100.00;98644.34;5059346;28;19974;-85
2022/05/16 02:25:07;;;;;;;;;;;;;;;14.43;100.00;98643.81;5059967;28;19924;-85
2022/05/16 02:27:34;;;;;;;;;;;;;;;14.30;100.00;98642.31;5042831;28;19924;-85
2022/05/16 02:30:02;;;;;;;;;;;;;;;13.97;100.00;98641.91;5059115;28;19931;-85
2022/05/16 02:32:30;;;;;;;;;;;;;;;14.20;100.00;98638.66;5059456;28;19928;-84
2022/05/16 02:34:57;;;;;;;;;;;;;;;14.22;100.00;98641.03;5059267;28;19923;-85
2022/05/16 02:37:24;;;;;;;;;;;;;;;14.29;100.00;98635.16;5075915;28;19924;-85
2022/05/16 02:39:51;;;;;;;;;;;;;;;14.16;100.00;98631.63;5075974;28;19978;-84
2022/05/16 02:42:18;;;;;;;;;;;;;;;14.43;100.00;98631.81;5093698;28;20442;-85
2022/05/16 02:44:45;;;;;;;;;;;;;;;14.31;100.00;98627.81;5059320;28;20022;-85
2022/05/16 02:47:15;;;;;;;;;;;;;;;14.40;100.00;98618.69;5075999;28;19924;-85
2022/05/16 02:49:42;;;;;;;;;;;;;;;14.48;100.00;98614.34;5043197;28;19924;-85
2022/05/16 02:52:09;;;;;;;;;;;;;;;14.63;100.00;98609.72;5075707;28;19931;-85
2022/05/16 02:54:37;;;;;;;;;;;;;;;14.42;100.00;98613.38;5059316;28;19973;-84
2022/05/16 02:57:29;;;;;;;;;;;;;;;14.29;100.00;98607.06;5092349;28;19912;-84
2022/05/16 02:59:58;;;;;;;;;;;;;;;14.40;100.00;98599.00;5106671;28;20003;-84
2022/05/16 03:02:29;;;;;;;;;;;;;;;14.18;100.00;98590.56;5107476;28;19924;-84
2022/05/16 03:04:58;;;;;;;;;;;;;;;14.23;100.00;98592.00;5073597;28;19924;-85
2022/05/16 03:07:25;;;;;;;;;;;;;;;14.20;100.00;98593.72;5089882;28;20379;-83
2022/05/16 03:09:54;;;;;;;;;;;;;;;14.33;100.00;98602.06;5073605;28;20359;-85
2022/05/16 03:12:22;;;;;;;;;;;;;;;14.30;100.00;98594.56;5124022;28;19925;-85
2022/05/16 03:14:50;;;;;;;;;;;;;;;14.14;100.00;98584.31;5089814;28;19928;-85
2022/05/16 03:17:17;;;;;;;;;;;;;;;14.04;100.00;98585.47;5090092;28;19924;-85
2022/05/16 03:19:44;;;;;;;;;;;;;;;14.19;100.00;98591.38;5106753;28;20303;-85
2022/05/16 03:22:11;;;;;;;;;;;;;;;14.26;100.00;98582.69;5123673;28;20299;-84
2022/05/16 03:24:39;;;;;;;;;;;;;;;14.25;100.00;98587.50;5123497;28;20301;-85
2022/05/16 03:27:07;;;;;;;;;;;;;;;14.41;100.00;98578.88;5091255;28;19931;-84
2022/05/16 03:29:34;;;;;;;;;;;;;;;14.28;100.00;98580.19;5089530;28;19925;-84
2022/05/16 03:32:01;;;;;;;;;;;;;;;14.45;100.00;98581.53;5072600;28;20287;-84
2022/05/16 03:34:28;;;;;;;;;;;;;;;14.26;100.00;98583.47;5106440;28;19924;-84
2022/05/16 03:36:55;;;;;;;;;;;;;;;14.44;100.00;98580.75;5089531;28;20299;-85
2022/05/16 03:42:08;;;;;;;;;;;;;;;14.23;100.00;98573.16;5123559;28;19931;-84
2022/05/16 03:44:35;;;;;;;;;;;;;;;14.28;100.00;98566.16;5089381;28;20302;-84
2022/05/16 03:47:02;;;;;;;;;;;;;;;14.32;100.00;98569.59;5106100;28;20032;-84
2022/05/16 03:49:30;;;;;;;;;;;;;;;14.23;100.00;98575.13;5089404;28;19997;-85
2022/05/16 03:51:59;;;;;;;;;;;;;;;14.42;100.00;98565.59;5089561;28;20069;-84
2022/05/16 03:54:26;;;;;;;;;;;;;;;14.31;100.00;98556.81;5090431;28;19924;-84
2022/05/16 03:56:53;;;;;;;;;;;;;;;14.33;100.00;98557.09;5072399;28;20294;-83
2022/05/16 03:59:20;;;;;;;;;;;;;;;14.36;100.00;98553.38;5122900;28;19928;-83
2022/05/16 04:01:49;;;;;;;;;;;;;;;14.59;100.00;98552.88;5106148;28;20354;-84
2022/05/16 04:04:16;;;;;;;;;;;;;;;14.79;100.00;98558.09;5090277;28;19950;-83
2022/05/16 04:06:45;;;;;;;;;;;;;;;14.79;100.00;98539.19;5087480;28;20383;-83
2022/05/16 04:09:12;;;;;;;;;;;;;;;14.55;100.00;98546.59;5091882;28;20398;-83
2022/05/16 04:11:39;;;;;;;;;;;;;;;14.36;100.00;98544.94;5059125;28;20387;-83
2022/05/16 04:14:07;;;;;;;;;;;;;;;14.27;100.00;98537.25;5076390;28;19930;-83
2022/05/16 04:16:34;;;;;;;;;;;;;;;14.57;100.00;98526.47;5075324;28;19924;-83
2022/05/16 04:19:01;;;;;;;;;;;;;;;14.79;100.00;98527.94;5075222;28;20402;-83
2022/05/16 04:21:29;;;;;;;;;;;;;;;14.86;100.00;98526.88;5091860;28;19978;-83
2022/05/16 04:23:56;;;;;;;;;;;;;;;14.58;100.00;98528.81;5092125;28;20371;-83
2022/05/16 04:26:24;;;;;;;;;;;;;;;14.66;100.00;98529.31;5075227;28;19924;-83
2022/05/16 04:28:51;;;;;;;;;;;;;;;14.82;100.00;98527.00;5076044;28;19928;-83
2022/05/16 04:31:18;;;;;;;;;;;;;;;14.87;100.00;98523.59;5108890;28;20380;-83
2022/05/16 04:33:45;;;;;;;;;;;;;;;14.63;100.00;98528.19;5058528;28;20307;-84
2022/05/16 04:36:12;;;;;;;;;;;;;;;14.54;100.00;98533.00;5074789;28;20013;-83
2022/05/16 04:38:39;;;;;;;;;;;;;;;14.46;100.00;98522.03;5058564;28;19932;-83
2022/05/16 04:43:52;;;;;;;;;;;;;;;14.45;100.00;98536.56;5076067;28;20376;-83
2022/05/16 04:46:19;;;;;;;;;;;;;;;14.63;100.00;98553.50;5058663;28;19928;-83
2022/05/16 04:48:46;;;;;;;;;;;;;;;14.38;100.00;98556.50;5074446;28;20030;-83
2022/05/16 04:51:13;;;;;;;;;;;;;;;14.26;100.00;98557.41;5058213;28;19924;-83
2022/05/16 04:53:40;;;;;;;;;;;;;;;14.29;100.00;98562.09;5108452;28;19952;-83
2022/05/16 04:56:07;;;;;;;;;;;;;;;14.26;100.00;98565.81;5074152;28;19925;-83
2022/05/16 04:58:35;;;;;;;;;;;;;;;14.23;100.00;98563.91;5074474;28;19925;-83
2022/05/16 05:01:03;;;;;;;;;;;;;;;14.19;100.00;98568.88;5091324;28;19932;-83
2022/05/16 05:03:30;;;;;;;;;;;;;;;14.61;100.00;98567.25;5091123;28;19924;-83
2022/05/16 05:05:57;;;;;;;;;;;;;;;14.47;100.00;98556.56;5074815;28;20363;-83
2022/05/16 05:08:24;;;;;;;;;;;;;;;14.44;100.00;98561.09;5091113;28;20066;-83
2022/05/16 05:16:24;;;;;;;;;;;;;;;14.82;100.00;98574.81;5091046;28;19995;-84
2022/05/16 05:18:51;;;;;;;;;;;;;;;14.95;100.00;98569.84;5073209;28;20447;-83
2022/05/16 05:21:18;;;;;;;;;;;;;;;15.15;100.00;98566.63;5090865;28;19930;-83
2022/05/16 05:23:46;;;;;;;;;;;;;;;14.97;100.00;98567.38;5057554;28;20368;-83
2022/05/16 05:26:13;;;;;;;;;;;;;;;15.08;100.00;98569.75;5074085;28;19931;-83
2022/05/16 05:28:41;;;;;;;;;;;;;;;14.88;100.00;98563.75;5073999;28;19928;-83
2022/05/16 05:31:10;;;;;;;;;;;;;;;15.03;100.00;98571.13;5107396;28;19932;-83
2022/05/16 05:33:37;;;;;;;;;;;;;;;14.78;100.00;98582.63;5107268;28;20015;-84
2022/05/16 05:36:05;;;;;;;;;;;;;;;14.44;100.00;98579.97;5074870;28;20445;-84
2022/05/16 05:38:32;;;;;;;;;;;;;;;14.83;100.00;98579.19;5073539;28;19929;-84
2022/05/16 05:40:59;;;;;;;;;;;;;;;14.96;100.00;98582.69;5057134;28;19924;-83
2022/05/16 05:43:26;;;;;;;;;;;;;;;15.14;100.00;98573.50;5073640;28;20031;-84
2022/05/16 05:45:53;;;;;;;;;;;;;;;14.91;100.00;98579.69;5107075;28;19925;-84
2022/05/16 05:48:22;;;;;;;;;;;;;;;14.98;100.00;98585.03;5073276;28;20017;-84
2022/05/16 05:50:49;;;;;;;;;;;;;;;14.96;100.00;98577.06;5073520;28;20360;-84
2022/05/16 05:53:16;;;;;;;;;;;;;;;15.04;100.00;98583.94;5056801;28;19929;-84
2022/05/16 05:55:43;;;;;;;;;;;;;;;15.30;100.00;98590.88;5106853;28;19924;-84
2022/05/16 05:58:10;;;;;;;;;;;;;;;15.55;100.00;98585.03;5090260;28;20013;-84
2022/05/16 06:00:37;;;;;;;;;;;;;;;15.67;100.00;98586.13;5073514;28;19931;-84
2022/05/16 06:03:05;;;;;;;;;;;;;;;15.63;100.00;98589.06;5106662;28;20002;-84
2022/05/16 06:05:32;;;;;;;;;;;;;;;15.62;100.00;98598.00;5106777;28;19931;-83
2022/05/16 06:07:59;;;;;;;;;;;;;;;15.81;100.00;98597.53;5073388;28;19931;-86
2022/05/16 06:10:26;;;;;;;;;;;;;;;15.67;100.00;98603.81;5089917;28;19931;-86
2022/05/16 06:12:54;;;;;;;;;;;;;;;15.73;100.00;98595.50;5073135;28;19924;-86
2022/05/16 06:15:22;;;;;;;;;;;;;;;15.83;100.00;98599.88;5107338;28;20019;-82
2022/05/16 06:17:49;;;;;;;;;;;;;;;15.92;100.00;98599.88;5073018;28;20292;-86
2022/05/16 06:20:16;;;;;;;;;;;;;;;15.96;100.00;98590.00;5071396;28;20447;-86
2022/05/16 06:22:44;;;;;;;;;;;;;;;16.11;100.00;98584.53;5106397;28;19931;-86
2022/05/16 06:27:59;;;;;;;;;;;;;;;15.46;100.00;98585.00;5039620;28;19950;-87
2022/05/16 06:30:26;;;;;;;;;;;;;;;15.75;100.00;98596.59;5072679;28;19931;-84
2022/05/16 06:32:54;;;;;;;;;;;;;;;16.00;100.00;98598.31;5089459;28;19924;-87
2022/05/16 06:35:21;;;;;;;;;;;;;;;16.05;100.00;98590.00;5089540;28;19924;-87
2022/05/16 06:37:48;;;;;;;;;;;;;;;15.89;100.00;98595.19;5089571;28;19950;-87
2022/05/16 06:40:17;;;;;;;;;;;;;;;16.08;100.00;98591.88;5089486;28;19925;-87
2022/05/16 06:42:45;;;;;;;;;;;;;;;16.44;100.00;98593.09;5073978;28;19931;-87
2022/05/16 06:45:12;;;;;;;;;;;;;;;16.49;100.00;98593.25;5072809;28;19936;-87
2022/05/16 06:47:39;;;;;;;;;;;;;;;16.18;100.00;98599.06;5072661;28;20368;-88
2022/05/16 06:50:07;;;;;;;;;;;;;;;16.18;100.00;98599.06;5106174;28;19959;-87
2022/05/16 06:52:34;;;;;;;;;;;;;;;15.86;100.00;98608.19;5089137;28;19931;-87
2022/05/16 06:55:01;;;;;;;;;;;;;;;16.37;100.00;98608.28;5089331;28;20048;-87
2022/05/16 06:57:28;;;;;;;;;;;;;;;16.28;100.00;98611.13;5072332;28;19924;-88
2022/05/16 06:59:55;;;;;;;;;;;;;;;16.42;100.00;98606.88;5055679;28;19925;-89
2022/05/16 07:02:22;;;;;;;;;;;;;;;16.70;100.00;98611.19;5055804;28;20272;-89
2022/05/16 07:04:49;;;;;;;;;;;;;;;16.85;100.00;98598.75;5089238;28;19971;-88
2022/05/16 07:07:16;;;;;;;;;;;;;;;17.01;100.00;98603.25;5089074;28;20471;-86
2022/05/16 07:09:43;;;;;;;;;;;;;;;17.09;100.00;98602.41;5072365;28;19925;-87
2022/05/16 07:12:10;;;;;;;;;;;;;;;17.19;100.00;98592.63;5072245;28;19924;-87
2022/05/16 07:14:38;;;;;;;;;;;;;;;17.08;100.00;98585.94;5088887;28;19924;-88
2022/05/16 07:17:06;;;;;;;;;;;;;;;17.12;100.00;98578.06;5106172;28;20376;-88
2022/05/16 07:19:35;;;;;;;;;;;;;;;17.20;100.00;98582.09;5089320;28;19924;-89
2022/05/16 07:22:03;;;;;;;;;;;;;;;17.22;100.00;98597.28;5055251;28;19982;-89
2022/05/16 07:24:30;;;;;;;;;;;;;;;16.89;100.00;98605.00;5089246;28;20031;-89
2022/05/16 07:29:44;;;;;;;;;;;;;;;17.19;100.00;98603.91;5055771;28;19999;-88
2022/05/16 07:32:11;;;;;;;;;;;;;;;17.24;100.00;98602.47;5073506;28;19925;-88
2022/05/16 07:34:39;;;;;;;;;;;;;;;17.29;100.00;98596.16;5089284;28;19925;-89
2022/05/16 07:37:07;;;;;;;;;;;;;;;17.27;100.00;98604.31;5088643;28;19925;-89
2022/05/16 07:39:35;;;;;;;;;;;;;;;17.30;100.00;98611.84;5072544;28;20005;-90
2022/05/16 07:42:03;;;;;;;;;;;;;;;17.18;100.00;98618.50;5089649;28;19929;-86
2022/05/16 07:44:32;;;;;;;;;;;;;;;16.38;100.00;98634.41;5109697;28;19925;-86
2022/05/16 07:46:59;;;;;;;;;;;;;;;16.84;100.00;98627.44;5092461;28;19925;-86
2022/05/16 07:49:26;;;;;;;;;;;;;;;17.11;100.00;98622.47;5109602;28;20418;-86
2022/05/16 07:51:53;;;;;;;;;;;;;;;16.95;100.00;98625.66;5109081;28;20369;-86
2022/05/16 07:54:20;;;;;;;;;;;;;;;17.02;100.00;98628.16;5076810;28;19931;-86
2022/05/16 07:56:47;;;;;;;;;;;;;;;17.21;100.00;98634.47;5075480;28;20057;-87
2022/05/16 07:59:16;;;;;;;;;;;;;;;17.23;100.00;98626.31;5075679;28;19947;-86
2022/05/16 08:01:43;;;;;;;;;;;;;;;17.39;100.00;98628.72;5075539;28;19925;-86
2022/05/16 08:04:12;;;;;;;;;;;;;;;17.46;100.00;98634.06;5075595;28;19971;-86
2022/05/16 08:06:39;;;;;;;;;;;;;;;17.55;100.00;98631.19;5075420;28;19924;-86
2022/05/16 08:11:52;;;;;;;;;;;;;;;17.12;100.00;98634.53;5075770;28;20391;-86
2022/05/16 08:14:19;;;;;;;;;;;;;;;17.16;100.00;98635.91;5076270;28;19931;-86
2022/05/16 08:16:46;;;;;;;;;;;;;;;17.18;100.00;98643.91;5092127;28;19928;-86
2022/05/16 08:19:13;;;;;;;;;;;;;;;17.36;100.00;98638.16;5092048;28;20366;-84
2022/05/16 08:21:41;;;;;;;;;;;;;;;17.36;100.00;98633.31;5075681;28;20260;-85
2022/05/16 08:24:11;;;;;;;;;;;;;;;17.25;100.00;98633.03;5058859;28;19950;-84
2022/05/16 08:26:38;;;;;;;;;;;;;;;17.36;100.00;98638.16;5075190;28;19929;-84
2022/05/16 08:29:06;;;;;;;;;;;;;;;17.39;100.00;98640.03;5074906;28;19971;-84
2022/05/16 08:31:33;;;;;;;;;;;;;;;17.47;100.00;98646.91;5042079;28;19924;-84
2022/05/16 08:34:00;;;;;;;;;;;;;;;17.60;100.00;98651.06;5108406;28;19974;-84
2022/05/16 08:42:04;;;;;;;;;;;;;;;17.47;100.00;98644.88;5074998;28;20030;-83
2022/05/16 08:44:55;;;;;;;;;;;;;;;17.50;100.00;98643.13;5075139;28;20010;-83
2022/05/16 08:47:25;;;;;;;;;;;;;;;17.53;100.00;98645.00;5075947;28;19967;-83
2022/05/16 08:50:01;;;;;;;;;;;;;;;17.52;100.00;98643.44;5074800;28;19929;-83
2022/05/16 08:52:28;;;;;;;;;;;;;;;17.51;100.00;98644.69;5075688;28;20023;-82
2022/05/16 08:55:18;;;;;;;;;;;;;;;17.63;100.00;98644.47;5075598;28;19950;-83
2022/05/16 08:57:46;;;;;;;;;;;;;;;17.58;100.00;98652.81;5058033;28;19924;-83
2022/05/16 09:00:32;;;;;;;;;;;;;;;17.57;100.00;98656.88;5041577;28;19925;-83
2022/05/16 09:03:03;;;;;;;;;;;;;;;17.28;100.00;98656.72;5074349;28;19931;-83
2022/05/16 09:05:39;;;;;;;;;;;;;;;17.09;100.00;98667.31;5108363;28;19924;-83
2022/05/16 09:08:10;;;;;;;;;;;;;;;17.11;100.00;98658.38;5108972;28;19925;-82
2022/05/16 09:10:49;;;;;;;;;;;;;;;17.35;100.00;98656.38;5074705;28;19931;-82
2022/05/16 09:13:35;;;;;;;;;;;;;;;17.61;100.00;98657.50;5057968;28;19928;-83
2022/05/16 09:16:09;;;;;;;;;;;;;;;17.86;100.00;98666.28;5057928;28;20011;-83
2022/05/16 09:18:39;;;;;;;;;;;;;;;18.03;100.00;98672.28;5074799;28;19924;-83
2022/05/16 09:21:11;;;;;;;;;;;;;;;18.11;100.00;98673.47;5075848;28;19924;-83
2022/05/16 09:23:58;;;;;;;;;;;;;;;18.26;100.00;98668.63;5075680;28;19924;-83
2022/05/16 09:26:34;;;;;;;;;;;;;;;18.38;100.00;98670.44;5057813;28;20397;-83
2022/05/16 09:29:09;;;;;;;;;;;;;;;18.33;100.00;98671.06;5091256;28;19924;-78
2022/05/16 09:31:40;;;;;;;;;;;;;;;18.33;100.00;98681.59;5075393;28;19925;-82
2022/05/16 09:34:09;;;;;;;;;;;;;;;18.13;100.00;98692.78;5075685;28;19925;-79
2022/05/16 09:36:37;;;;;;;;;;;;;;;18.22;100.00;98690.66;5073993;28;19924;-84
2022/05/16 09:39:06;;;;;;;;;;;;;;;17.59;100.00;98689.06;5107233;28;19924;-84
2022/05/16 09:41:33;;;;;;;;;;;;;;;18.05;100.00;98692.38;5090215;28;19935;-84
2022/05/16 09:44:10;;;;;;;;;;;;;;;17.76;100.00;98701.53;5057280;28;20019;-86
2022/05/16 09:46:39;;;;;;;;;;;;;;;17.80;100.00;98704.94;5057800;28;20019;-83
2022/05/16 09:49:09;;;;;;;;;;;;;;;16.54;100.00;98701.81;5073985;28;20038;-82
2022/05/16 09:51:47;;;;;;;;;;;;;;;16.88;100.00;98710.66;5074676;28;19932;-82
2022/05/16 09:54:23;;;;;;;;;;;;;;;17.22;100.00;98715.09;5073718;28;19932;-82
2022/05/16 09:56:56;;;;;;;;;;;;;;;17.53;100.00;98713.59;5070584;28;19925;-81
2022/05/16 09:59:44;;;;;;;;;;;;;;;17.13;100.00;98715.16;5070160;28;19994;-82
2022/05/16 10:02:13;;;;;;;;;;;;;;;17.00;100.00;98725.81;5072428;28;19925;-82
2022/05/16 10:04:52;;;;;;;;;;;;;;;17.21;100.00;98722.00;5087590;28;19924;-81
2022/05/16 10:07:27;;;;;;;;;;;;;;;17.18;100.00;98726.56;5071379;28;19924;-82
2022/05/16 10:09:54;;;;;;;;;;;;;;;17.63;100.00;98731.28;5103853;28;20015;-82
2022/05/16 10:12:23;;;;;;;;;;;;;;;17.48;100.00;98741.69;5070610;28;19924;-81
2022/05/16 10:14:50;;;;;;;;;;;;;;;17.70;100.00;98739.38;5070722;28;19924;-82
2022/05/16 10:17:24;;;;;;;;;;;;;;;17.61;100.00;98742.25;5053747;28;19925;-82
2022/05/16 10:19:54;;;;;;;;;;;;;;;17.76;100.00;98740.28;5071517;28;19924;-82
2022/05/16 10:22:25;;;;;;;;;;;;;;;17.76;100.00;98738.25;5070669;28;19931;-81
2022/05/16 10:24:59;;;;;;;;;;;;;;;17.42;100.00;98743.56;5071734;28;19987;-81
2022/05/16 10:27:29;;;;;;;;;;;;;;;17.58;100.00;98740.38;5071687;28;19924;-81
2022/05/16 10:29:57;;;;;;;;;;;;;;;17.64;100.00;98744.91;5071150;28;19978;-81
2022/05/16 10:35:18;;;;;;;;;;;;;;;18.06;100.00;98738.38;5071165;28;19932;-82
2022/05/16 10:37:47;;;;;;;;;;;;;;;17.93;100.00;98741.47;5070081;28;20032;-82
2022/05/16 10:40:29;;;;;;;;;;;;;;;17.24;100.00;98750.06;5070696;28;20375;-81
2022/05/16 10:43:08;;;;;;;;;;;;;;;17.71;100.00;98747.38;5070940;28;19928;-81
2022/05/16 10:45:36;;;;;;;;;;;;;;;17.51;100.00;98754.84;5071242;28;19925;-81
2022/05/16 10:48:06;;;;;;;;;;;;;;;18.00;100.00;98760.88;5071518;28;20002;-81
2022/05/16 10:50:46;;;;;;;;;;;;;;;18.24;100.00;98749.53;5068169;28;19932;-82
2022/05/16 10:53:20;;;;;;;;;;;;;;;18.42;100.00;98749.47;5070639;28;19936;-81
2022/05/16 10:56:06;;;;;;;;;;;;;;;18.39;100.00;98748.38;5070992;28;19971;-81
2022/05/16 10:58:40;;;;;;;;;;;;;;;18.48;100.00;98751.13;5070948;28;19951;-82
2022/05/16 11:01:07;;;;;;;;;;;;;;;18.78;100.00;98749.91;5070094;28;20721;-81
2022/05/16 11:03:45;;;;;;;;;;;;;;;18.42;100.00;98741.75;5071001;28;19977;-82
2022/05/16 11:06:31;;;;;;;;;;;;;;;18.82;100.00;98739.19;5069649;28;19928;-81
2022/05/16 11:09:08;;;;;;;;;;;;;;;18.91;100.00;98753.25;5071057;28;19936;-82
2022/05/16 11:11:39;;;;;;;;;;;;;;;18.46;100.00;98759.31;5053042;28;19986;-82
2022/05/16 11:14:32;;;;;;;;;;;;;;;18.86;100.00;98751.09;5069514;28;19960;-81
2022/05/16 11:17:07;;;;;;;;;;;;;;;18.52;100.00;98765.09;5070083;28;19931;-82
2022/05/16 11:20:07;;;;;;;;;;;;;;;18.53;100.00;98775.91;5073687;28;20500;-83
2022/05/16 11:22:41;;;;;;;;;;;;;;;18.73;100.00;98770.41;5015746;28;19925;-83
2022/05/16 11:25:13;;;;;;;;;;;;;;;18.68;100.00;98765.41;5015968;28;19954;-80
2022/05/16 11:27:55;;;;;;;;;;;;;;;18.51;100.00;98764.28;5015598;28;19940;-83
2022/05/16 11:30:47;;;;;;;;;;;;;;;18.40;100.00;98761.25;4983974;28;19929;-82
2022/05/16 11:33:26;;;;;;;;;;;;;;;18.93;100.00;98753.53;5015803;28;19929;-82
2022/05/16 11:35:55;;;;;;;;;;;;;;;18.62;100.00;98764.53;5015964;28;20359;-82
2022/05/16 11:38:42;;;;;;;;;;;;;;;19.25;100.00;98768.78;5015524;28;19932;-82
2022/05/16 11:41:10;;;;;;;;;;;;;;;19.30;100.00;98768.09;4996326;28;19929;-83
2022/05/16 11:43:44;;;;;;;;;;;;;;;18.83;100.00;98757.72;5015638;28;19925;-83
2022/05/16 11:46:26;;;;;;;;;;;;;;;18.70;100.00;98760.06;5015740;28;19999;-82
2022/05/16 11:48:59;;;;;;;;;;;;;;;18.86;100.00;98762.41;5015644;28;19979;-82
2022/05/16 11:52:04;;;;;;;;;;;;;;;19.16;100.00;98766.81;4985957;28;20681;-83
2022/05/16 11:54:37;;;;;;;;;;;;;;;19.41;100.00;98763.41;5016213;28;20339;-82
2022/05/16 12:02:41;;;;;;;;;;;;;;;18.70;100.00;98765.72;5053948;28;20340;-81
2022/05/16 12:05:16;;;;;;;;;;;;;;;18.30;100.00;98776.69;5054199;28;20315;-81
2022/05/16 12:07:57;;;;;;;;;;;;;;;18.80;100.00;98780.53;5052975;28;20031;-81
2022/05/16 12:10:25;;;;;;;;;;;;;;;18.63;100.00;98782.28;5069857;28;19925;-81
2022/05/16 12:13:11;;;;;;;;;;;;;;;18.78;100.00;98777.44;5053466;28;19990;-82
2022/05/16 12:15:38;;;;;;;;;;;;;;;18.95;100.00;98793.44;5052786;28;20331;-82
2022/05/16 12:18:07;;;;;;;;;;;;;;;18.99;100.00;98785.53;5053858;28;19932;-81
2022/05/16 12:20:57;;;;;;;;;;;;;;;19.12;100.00;98785.25;5052820;28;19994;-81
2022/05/16 12:23:57;;;;;;;;;;;;;;;19.13;100.00;98781.19;5019361;28;19936;-81
2022/05/16 12:26:27;;;;;;;;;;;;;;;19.46;100.00;98790.28;5030180;28;20023;-81
2022/05/16 12:29:10;;;;;;;;;;;;;;;19.59;100.00;98788.69;5068105;28;20648;-81
2022/05/16 12:31:48;;;;;;;;;;;;;;;20.01;100.00;98791.13;5035919;28;19924;-81
2022/05/16 12:34:31;;;;;;;;;;;;;;;20.25;100.00;98788.16;5052484;28;19971;-81
2022/05/16 12:36:59;;;;;;;;;;;;;;;20.51;100.00;98789.00;5053628;28;19925;-81
2022/05/16 12:39:27;;;;;;;;;;;;;;;20.80;100.00;98797.34;5052186;28;20451;-81
2022/05/16 12:42:07;;;;;;;;;;;;;;;20.80;100.00;98786.00;5036131;28;19964;-81
2022/05/16 12:44:41;;;;;;;;;;;;;;;20.67;100.00;98782.75;5069619;28;19943;-81
2022/05/16 12:47:18;;;;;;;;;;;;;;;20.55;100.00;98786.75;5085874;28;19932;-81
2022/05/16 12:49:50;;;;;;;;;;;;;;;20.89;100.00;98778.09;5053486;28;20467;-82
2022/05/16 12:52:44;;;;;;;;;;;;;;;20.87;100.00;98791.25;5053244;28;19933;-81
2022/05/16 12:55:31;;;;;;;;;;;;;;;21.28;100.00;98787.06;5085517;28;19931;-82
2022/05/16 12:58:03;;;;;;;;;;;;;;;20.95;100.00;98783.84;5051854;28;19929;-81
2022/05/16 13:00:51;;;;;;;;;;;;;;;20.98;100.00;98786.50;5052963;28;19998;-81
2022/05/16 13:03:41;;;;;;;;;;;;;;;21.03;100.00;98779.31;5018462;28;19925;-83
2022/05/16 13:06:25;;;;;;;;;;;;;;;20.98;100.00;98771.50;5050143;28;20430;-82
2022/05/16 13:08:57;;;;;;;;;;;;;;;20.96;100.00;98776.91;5053082;28;19925;-82
2022/05/16 13:11:39;;;;;;;;;;;;;;;21.24;100.00;98775.13;5053442;28;19931;-82
2022/05/16 13:14:06;;;;;;;;;;;;;;;21.21;100.00;98784.66;5052889;28;19978;-82
2022/05/16 13:16:36;;;;;;;;;;;;;;;20.82;100.00;98777.75;5052508;28;19929;-82
2022/05/16 13:19:07;;;;;;;;;;;;;;;20.95;100.00;98781.81;5052042;28;19969;-81
2022/05/16 13:21:36;;;;;;;;;;;;;;;21.20;100.00;98783.09;5052867;28;19931;-81
2022/05/16 13:24:07;;;;;;;;;;;;;;;20.90;100.00;98781.72;5052112;28;20300;-83
2022/05/16 13:29:23;;;;;;;;;;;;;;;20.43;100.00;98791.47;5051758;28;20027;-82
2022/05/16 13:31:53;;;;;;;;;;;;;;;20.20;100.00;98778.28;5066378;28;20660;-82
2022/05/16 13:34:28;;;;;;;;;;;;;;;20.30;100.00;98774.03;5072143;28;20011;-82
2022/05/16 13:36:56;;;;;;;;;;;;;;;20.41;100.00;98781.91;5054504;28;20011;-82